createdAt,value
2022-09-28T00:01:17.046Z,84.79
2022-09-28T00:03:48.483Z,84.98
2022-09-28T00:06:18.059Z,85.14
2022-09-28T00:08:45.761Z,85.40
2022-09-28T00:11:14.842Z,85.18
2022-09-28T00:13:43.350Z,85.13
2022-09-28T00:16:16.847Z,85.43
2022-09-28T00:18:45.093Z,85.24
2022-09-28T00:21:17.742Z,85.51
2022-09-28T00:24:04.037Z,85.69
2022-09-28T00:26:33.143Z,85.38
2022-09-28T00:29:01.543Z,85.44
2022-09-28T00:31:33.894Z,85.43
2022-09-28T00:34:02.105Z,85.76
2022-09-28T00:36:31.483Z,86.06
2022-09-28T00:39:00.423Z,85.69
2022-09-28T00:41:29.231Z,85.72
2022-09-28T00:44:35.704Z,85.70
2022-09-28T00:47:27.194Z,85.95
2022-09-28T00:50:01.056Z,86.16
2022-09-28T00:52:37.822Z,86.26
2022-09-28T00:55:08.437Z,86.28
2022-09-28T00:57:37.604Z,86.28
2022-09-28T01:00:06.230Z,86.42
2022-09-28T01:02:34.342Z,86.43
2022-09-28T01:05:03.694Z,86.43
2022-09-28T01:07:32.187Z,86.39
2022-09-28T01:09:59.830Z,86.42
2022-09-28T01:12:27.234Z,86.48
2022-09-28T01:14:55.537Z,86.19
2022-09-28T01:17:32.262Z,86.08
2022-09-28T01:20:13.817Z,86.08
2022-09-28T01:22:55.055Z,85.95
2022-09-28T01:25:38.106Z,86.04
2022-09-28T01:28:16.428Z,86.21
2022-09-28T01:30:46.959Z,86.28
2022-09-28T01:33:21.247Z,86.23
2022-09-28T01:36:12.565Z,86.07
2022-09-28T01:38:43.092Z,86.11
2022-09-28T01:41:11.850Z,86.13
2022-09-28T01:43:41.926Z,86.07
2022-09-28T01:46:14.675Z,86.09
2022-09-28T01:48:48.567Z,85.94
2022-09-28T01:51:21.419Z,85.85
2022-09-28T01:53:51.449Z,85.99
2022-09-28T01:56:24.085Z,85.97
2022-09-28T01:58:55.061Z,86.01
2022-09-28T02:01:25.932Z,85.86
2022-09-28T02:04:15.520Z,86.01
2022-09-28T02:06:56.701Z,86.08
2022-09-28T02:09:31.691Z,85.96
2022-09-28T02:12:00.519Z,86.16
2022-09-28T02:14:29.168Z,86.29
2022-09-28T02:16:58.211Z,86.55
2022-09-28T02:19:28.344Z,86.60
2022-09-28T02:22:25.088Z,86.59
2022-09-28T02:25:29.930Z,86.31
2022-09-28T02:28:05.386Z,86.46
2022-09-28T02:30:35.983Z,86.50
2022-09-28T02:33:07.000Z,86.60
2022-09-28T02:35:34.897Z,86.71
2022-09-28T02:38:02.848Z,86.74
2022-09-28T02:40:32.960Z,86.76
2022-09-28T02:43:09.969Z,86.60
2022-09-28T02:46:01.585Z,86.63
2022-09-28T02:49:19.863Z,86.83
2022-09-28T02:51:44.113Z,86.72
2022-09-28T02:54:21.966Z,86.69
2022-09-28T02:57:08.349Z,86.84
2022-09-28T02:59:52.092Z,87.05
2022-09-28T03:02:39.512Z,87.23
2022-09-28T03:05:13.330Z,87.35
2022-09-28T03:07:50.218Z,87.54
2022-09-28T03:10:29.873Z,87.53
2022-09-28T03:12:57.731Z,87.64
2022-09-28T03:15:30.496Z,87.70
2022-09-28T03:17:58.748Z,87.53
2022-09-28T03:20:27.200Z,87.77
2022-09-28T03:23:19.786Z,87.88
2022-09-28T03:25:24.758Z,87.77
2022-09-28T03:27:52.114Z,87.84
2022-09-28T03:30:20.035Z,87.83
2022-09-28T03:32:47.438Z,87.73
2022-09-28T03:35:15.247Z,87.68
2022-09-28T03:37:42.534Z,87.77
2022-09-28T03:40:10.239Z,87.99
2022-09-28T03:42:37.713Z,88.19
2022-09-28T03:45:05.821Z,88.15
2022-09-28T03:47:33.647Z,88.24
2022-09-28T03:50:00.899Z,88.36
2022-09-28T03:52:28.660Z,88.39
2022-09-28T03:54:55.720Z,88.24
2022-09-28T03:57:23.148Z,88.19
2022-09-28T03:59:50.665Z,88.18
2022-09-28T04:02:18.353Z,88.19
2022-09-28T04:04:46.756Z,88.36
2022-09-28T04:07:15.049Z,88.30
2022-09-28T04:09:42.991Z,88.34
2022-09-28T04:12:10.394Z,88.26
2022-09-28T04:14:37.960Z,88.11
2022-09-28T04:17:06.660Z,88.29
2022-09-28T04:19:34.033Z,88.27
2022-09-28T04:22:09.063Z,88.48
2022-09-28T04:24:38.755Z,88.54
2022-09-28T04:27:24.739Z,88.73
2022-09-28T04:29:52.307Z,88.62
2022-09-28T04:32:19.709Z,88.62
2022-09-28T04:34:47.467Z,88.74
2022-09-28T04:37:14.714Z,88.89
2022-09-28T04:39:46.178Z,89.02
2022-09-28T04:42:11.657Z,89.00
2022-09-28T04:44:39.518Z,89.04
2022-09-28T04:47:08.636Z,88.90
2022-09-28T04:49:40.624Z,88.95
2022-09-28T04:52:12.547Z,89.09
2022-09-28T04:54:39.549Z,89.17
2022-09-28T04:57:07.244Z,89.13
2022-09-28T04:59:36.565Z,89.07
2022-09-28T05:02:04.395Z,89.13
2022-09-28T05:04:36.632Z,89.03
2022-09-28T05:07:05.995Z,89.18
2022-09-28T05:09:37.667Z,89.24
2022-09-28T05:12:03.639Z,89.29
2022-09-28T05:14:31.786Z,89.38
2022-09-28T05:16:59.237Z,89.48
2022-09-28T05:19:29.862Z,89.54
2022-09-28T05:22:00.818Z,89.55
2022-09-28T05:24:30.584Z,89.80
2022-09-28T05:26:58.111Z,90.88
2022-09-28T05:29:31.947Z,93.93
2022-09-28T05:32:16.581Z,97.29
2022-09-28T05:34:48.897Z,95.23
2022-09-28T05:37:18.511Z,88.96
2022-09-28T05:39:47.193Z,85.99
2022-09-28T05:42:14.604Z,84.51
2022-09-28T05:44:45.710Z,83.43
2022-09-28T05:47:13.461Z,83.20
2022-09-28T05:49:41.995Z,82.90
2022-09-28T05:52:09.619Z,82.22
2022-09-28T05:54:38.720Z,82.48
2022-09-28T05:57:07.035Z,82.62
2022-09-28T05:59:35.677Z,82.90
2022-09-28T06:02:04.596Z,83.05
2022-09-28T06:04:32.090Z,83.10
2022-09-28T06:06:59.666Z,83.48
2022-09-28T06:09:28.061Z,83.71
2022-09-28T06:12:15.539Z,83.86
2022-09-28T06:14:48.674Z,83.72
2022-09-28T06:17:16.165Z,83.69
2022-09-28T06:19:45.454Z,83.80
2022-09-28T06:22:17.576Z,84.15
2022-09-28T06:24:46.991Z,84.34
2022-09-28T06:27:14.382Z,84.45
2022-09-28T06:29:42.643Z,84.68
2022-09-28T06:32:11.745Z,84.87
2022-09-28T06:34:42.715Z,85.07
2022-09-28T06:37:10.578Z,85.30
2022-09-28T06:39:37.878Z,85.66
2022-09-28T06:42:05.868Z,85.85
2022-09-28T06:44:40.982Z,86.06
2022-09-28T06:47:15.896Z,84.15
2022-09-28T06:50:06.703Z,80.61
2022-09-28T06:52:53.975Z,78.46
2022-09-28T06:55:26.820Z,77.51
2022-09-28T06:58:00.889Z,76.52
2022-09-28T07:00:32.452Z,74.04
2022-09-28T07:03:03.073Z,73.85
2022-09-28T07:05:44.072Z,73.88
2022-09-28T07:08:19.888Z,72.26
2022-09-28T07:11:07.854Z,70.85
2022-09-28T07:13:50.315Z,67.98
2022-09-28T07:16:09.541Z,67.28
2022-09-28T07:18:39.411Z,67.95
2022-09-28T07:21:07.672Z,67.77
2022-09-28T07:23:48.084Z,67.59
2022-09-28T07:26:13.885Z,68.01
2022-09-28T07:28:45.853Z,68.32
2022-09-28T07:31:33.297Z,68.05
2022-09-28T07:34:14.213Z,69.44
2022-09-28T07:36:57.358Z,70.25
2022-09-28T07:39:25.430Z,71.18
2022-09-28T07:41:56.754Z,70.71
2022-09-28T07:44:22.839Z,71.05
2022-09-28T07:46:52.281Z,71.63
2022-09-28T07:49:31.763Z,71.80
2022-09-28T07:52:03.972Z,72.17
2022-09-28T07:54:39.503Z,72.52
2022-09-28T07:57:14.811Z,72.87
2022-09-28T07:59:53.102Z,71.96
2022-09-28T08:02:39.430Z,70.85
2022-09-28T08:05:08.899Z,69.37
2022-09-28T08:07:37.862Z,68.36
2022-09-28T08:10:10.249Z,68.92
2022-09-28T08:13:00.696Z,68.52
2022-09-28T08:15:41.924Z,69.12
2022-09-28T08:18:10.956Z,69.67
2022-09-28T08:20:56.489Z,69.89
2022-09-28T08:23:24.031Z,69.72
2022-09-28T08:25:56.569Z,69.97
2022-09-28T08:28:24.334Z,69.85
2022-09-28T08:30:53.808Z,69.37
2022-09-28T08:33:43.994Z,69.24
2022-09-28T08:36:29.845Z,69.13
2022-09-28T08:38:58.880Z,67.36
2022-09-28T08:41:54.175Z,67.24
2022-09-28T08:44:45.540Z,66.96
2022-09-28T08:47:37.014Z,66.43
2022-09-28T08:50:17.577Z,66.36
2022-09-28T08:53:06.205Z,65.46
2022-09-28T08:55:39.576Z,65.94
2022-09-28T08:58:23.716Z,65.64
2022-09-28T09:00:52.405Z,66.06
2022-09-28T09:03:32.058Z,65.51
2022-09-28T09:06:18.163Z,65.95
2022-09-28T09:09:00.538Z,66.33
2022-09-28T09:11:48.202Z,65.92
2022-09-28T09:14:43.823Z,63.36
2022-09-28T09:17:24.433Z,64.25
2022-09-28T09:20:20.166Z,64.15
2022-09-28T09:23:00.418Z,63.27
2022-09-28T09:25:42.347Z,63.53
2022-09-28T09:28:20.350Z,58.09
2022-09-28T09:31:10.986Z,59.54
2022-09-28T09:33:43.730Z,60.69
2022-09-28T09:36:22.079Z,61.53
2022-09-28T09:39:06.691Z,57.53
2022-09-28T09:42:05.497Z,58.34
2022-09-28T09:44:58.756Z,57.47
2022-09-28T09:47:49.500Z,55.69
2022-09-28T09:50:33.753Z,55.61
2022-09-28T09:53:04.498Z,55.10
2022-09-28T09:55:44.778Z,54.79
2022-09-28T09:58:29.318Z,53.06
2022-09-28T10:01:10.640Z,53.42
2022-09-28T10:03:58.168Z,51.82
2022-09-28T10:06:29.714Z,52.01
2022-09-28T10:09:06.418Z,51.58
2022-09-28T10:11:40.931Z,49.62
2022-09-28T10:14:16.827Z,51.36
2022-09-28T10:16:47.949Z,50.16
2022-09-28T10:19:20.909Z,48.70
2022-09-28T10:21:53.107Z,49.85
2022-09-28T10:24:32.122Z,50.12
2022-09-28T10:27:12.190Z,50.49
2022-09-28T10:30:09.272Z,50.56
2022-09-28T10:32:38.955Z,49.96
2022-09-28T10:35:22.388Z,51.10
2022-09-28T10:38:16.903Z,50.88
2022-09-28T10:40:53.334Z,50.64
2022-09-28T10:43:39.545Z,51.09
2022-09-28T10:46:22.929Z,51.64
2022-09-28T10:49:03.055Z,50.68
2022-09-28T10:51:51.587Z,49.97
2022-09-28T10:54:22.732Z,49.78
2022-09-28T10:56:53.111Z,49.42
2022-09-28T10:59:37.542Z,49.20
2022-09-28T11:02:27.058Z,49.06
2022-09-28T11:05:01.077Z,49.09
2022-09-28T11:07:32.442Z,48.75
2022-09-28T11:10:01.167Z,48.59
2022-09-28T11:12:35.866Z,48.65
2022-09-28T11:15:05.970Z,49.38
2022-09-28T11:17:40.083Z,49.88
2022-09-28T11:20:28.453Z,49.79
2022-09-28T11:23:18.474Z,49.58
2022-09-28T11:26:01.689Z,49.97
2022-09-28T11:28:32.705Z,48.61
2022-09-28T11:31:01.761Z,49.41
2022-09-28T11:33:40.653Z,49.19
2022-09-28T11:36:16.542Z,48.57
2022-09-28T11:38:54.946Z,49.41
2022-09-28T11:41:27.903Z,49.01
2022-09-28T11:44:16.075Z,48.55
2022-09-28T11:47:05.749Z,48.35
2022-09-28T11:49:39.891Z,48.91
2022-09-28T11:52:23.087Z,48.77
2022-09-28T11:54:57.068Z,48.62
2022-09-28T11:57:30.192Z,48.72
2022-09-28T12:00:13.263Z,48.24
2022-09-28T12:02:55.263Z,47.94
2022-09-28T12:05:33.578Z,48.74
2022-09-28T12:08:15.054Z,48.00
2022-09-28T12:11:13.568Z,48.31
2022-09-28T12:14:04.434Z,47.63
2022-09-28T12:17:07.385Z,46.94
2022-09-28T12:19:43.379Z,47.24
2022-09-28T12:22:17.175Z,47.25
2022-09-28T12:24:47.047Z,46.83
2022-09-28T12:27:17.631Z,47.47
2022-09-28T12:30:00.228Z,47.44
2022-09-28T12:32:37.373Z,46.92
2022-09-28T12:35:31.797Z,46.77
2022-09-28T12:38:13.377Z,46.74
2022-09-28T12:40:53.400Z,47.19
2022-09-28T12:43:40.068Z,46.80
2022-09-28T12:46:16.932Z,46.46
2022-09-28T12:49:21.661Z,43.63
2022-09-28T12:51:34.136Z,44.08
2022-09-28T12:54:07.844Z,45.32
2022-09-28T12:57:10.845Z,46.34
2022-09-28T12:59:41.980Z,46.11
2022-09-28T13:02:19.517Z,46.37
2022-09-28T13:05:09.106Z,47.21
2022-09-28T13:07:57.865Z,47.65
2022-09-28T13:10:37.951Z,47.72
2022-09-28T13:13:09.029Z,47.44
2022-09-28T13:15:55.398Z,47.52
2022-09-28T13:18:35.260Z,47.76
2022-09-28T13:21:10.141Z,48.13
2022-09-28T13:23:42.397Z,48.27
2022-09-28T13:26:16.719Z,48.22
2022-09-28T13:28:46.977Z,48.10
2022-09-28T13:31:17.647Z,48.15
2022-09-28T13:33:47.568Z,48.14
2022-09-28T13:36:33.029Z,47.83
2022-09-28T13:39:00.495Z,48.30
2022-09-28T13:41:34.917Z,48.63
2022-09-28T13:44:17.400Z,48.95
2022-09-28T13:46:52.077Z,49.09
2022-09-28T13:49:39.786Z,49.26
2022-09-28T13:52:22.375Z,49.11
2022-09-28T13:55:24.399Z,49.38
2022-09-28T13:57:58.107Z,49.70
2022-09-28T14:00:33.771Z,49.58
2022-09-28T14:03:07.873Z,49.80
2022-09-28T14:05:47.697Z,49.77
2022-09-28T14:08:38.068Z,49.72
2022-09-28T14:11:34.342Z,49.64
2022-09-28T14:14:13.114Z,49.83
2022-09-28T14:16:41.921Z,49.97
2022-09-28T14:19:22.418Z,50.27
2022-09-28T14:21:57.581Z,50.38
2022-09-28T14:24:37.786Z,50.83
2022-09-28T14:27:20.883Z,51.11
2022-09-28T14:29:51.844Z,51.35
2022-09-28T14:32:24.236Z,51.61
2022-09-28T14:34:58.292Z,51.95
2022-09-28T14:37:47.159Z,52.07
2022-09-28T14:40:49.613Z,52.28
2022-09-28T14:43:30.589Z,52.32
2022-09-28T14:46:14.282Z,52.50
2022-09-28T14:48:52.952Z,52.62
2022-09-28T14:51:30.471Z,52.70
2022-09-28T14:54:03.734Z,52.98
2022-09-28T14:56:35.636Z,53.00
2022-09-28T14:59:03.088Z,53.36
2022-09-28T15:01:30.388Z,54.02
2022-09-28T15:04:06.244Z,54.23
2022-09-28T15:06:48.565Z,54.54
2022-09-28T15:09:29.581Z,54.88
2022-09-28T15:12:10.140Z,55.10
2022-09-28T15:14:53.698Z,55.38
2022-09-28T15:17:27.605Z,55.77
2022-09-28T15:20:19.195Z,56.16
2022-09-28T15:22:50.926Z,56.49
2022-09-28T15:25:20.959Z,56.71
2022-09-28T15:28:06.380Z,57.07
2022-09-28T15:30:42.022Z,57.36
2022-09-28T15:33:44.223Z,57.57
2022-09-28T15:36:27.851Z,57.88
2022-09-28T15:38:58.663Z,57.86
2022-09-28T15:41:26.599Z,58.27
2022-09-28T15:44:09.832Z,58.45
2022-09-28T15:46:39.912Z,59.02
2022-09-28T15:49:23.286Z,59.29
2022-09-28T15:51:53.226Z,59.58
2022-09-28T15:54:26.991Z,59.83
2022-09-28T15:57:01.400Z,60.13
2022-09-28T15:59:40.445Z,60.10
2022-09-28T16:02:17.012Z,60.28
2022-09-28T16:05:00.150Z,60.40
2022-09-28T16:07:40.200Z,60.69
2022-09-28T16:10:14.059Z,60.83
2022-09-28T16:12:48.166Z,60.94
2022-09-28T16:15:24.669Z,61.55
2022-09-28T16:17:55.558Z,61.61
2022-09-28T16:20:31.408Z,62.00
2022-09-28T16:23:05.404Z,61.78
2022-09-28T16:25:36.988Z,62.05
2022-09-28T16:28:05.174Z,62.46
2022-09-28T16:30:34.324Z,62.36
2022-09-28T16:33:07.955Z,62.73
2022-09-28T16:35:41.878Z,63.03
2022-09-28T16:38:13.149Z,62.83
2022-09-28T16:40:48.947Z,63.05
2022-09-28T16:43:23.625Z,63.38
2022-09-28T16:45:51.417Z,63.42
2022-09-28T16:48:20.983Z,63.54
2022-09-28T16:50:48.503Z,63.76
2022-09-28T16:53:35.466Z,63.75
2022-09-28T16:56:03.746Z,64.37
2022-09-28T16:58:31.385Z,64.58
2022-09-28T17:00:59.427Z,64.82
2022-09-28T17:03:27.631Z,64.97
2022-09-28T17:05:56.029Z,65.23
2022-09-28T17:08:24.474Z,65.50
2022-09-28T17:11:18.094Z,65.87
2022-09-28T17:13:33.429Z,65.83
2022-09-28T17:16:12.995Z,66.21
2022-09-28T17:18:40.831Z,66.41
2022-09-28T17:21:19.593Z,66.45
2022-09-28T17:23:48.760Z,66.48
2022-09-28T17:26:30.160Z,66.64
2022-09-28T17:28:58.831Z,66.78
2022-09-28T17:31:26.331Z,66.76
2022-09-28T17:33:54.353Z,66.83
2022-09-28T17:36:22.301Z,66.80
2022-09-28T17:38:51.501Z,66.83
2022-09-28T17:41:20.967Z,66.75
2022-09-28T17:43:49.752Z,66.77
2022-09-28T17:46:29.546Z,66.85
2022-09-28T17:48:58.986Z,67.20
2022-09-28T17:51:29.694Z,67.60
2022-09-28T17:53:58.329Z,67.47
2022-09-28T17:56:29.812Z,67.37
2022-09-28T17:59:00.223Z,67.66
2022-09-28T18:01:29.150Z,67.62
2022-09-28T18:03:57.086Z,67.90
2022-09-28T18:06:24.735Z,68.16
2022-09-28T18:08:54.526Z,68.20
2022-09-28T18:11:22.228Z,68.65
2022-09-28T18:13:49.717Z,68.84
2022-09-28T18:16:17.089Z,68.84
2022-09-28T18:18:47.475Z,69.03
2022-09-28T18:21:16.986Z,69.05
2022-09-28T18:23:48.333Z,69.05
2022-09-28T18:26:18.362Z,69.31
2022-09-28T18:28:46.321Z,69.30
2022-09-28T18:31:14.818Z,69.35
2022-09-28T18:33:43.132Z,69.52
2022-09-28T18:36:10.395Z,69.77
2022-09-28T18:38:38.485Z,69.77
2022-09-28T18:41:10.432Z,70.16
2022-09-28T18:43:41.625Z,70.14
2022-09-28T18:46:10.240Z,70.46
2022-09-28T18:48:40.283Z,70.53
2022-09-28T18:51:09.016Z,70.61
2022-09-28T18:53:38.527Z,70.84
2022-09-28T18:56:07.886Z,70.85
2022-09-28T18:58:36.530Z,71.13
2022-09-28T19:01:31.765Z,71.18
2022-09-28T19:03:44.947Z,71.63
2022-09-28T19:06:14.559Z,71.29
2022-09-28T19:08:42.808Z,71.34
2022-09-28T19:11:12.723Z,71.40
2022-09-28T19:13:40.426Z,71.32
2022-09-28T19:16:23.463Z,71.47
2022-09-28T19:18:56.073Z,71.71
2022-09-28T19:21:23.640Z,71.67
2022-09-28T19:23:52.991Z,71.75
2022-09-28T19:26:23.721Z,72.23
2022-09-28T19:28:51.426Z,71.98
2022-09-28T19:31:19.373Z,72.15
2022-09-28T19:33:47.656Z,72.23
2022-09-28T19:36:18.105Z,72.79
2022-09-28T19:38:46.114Z,72.70
2022-09-28T19:41:39.384Z,72.65
2022-09-28T19:44:09.869Z,72.75
2022-09-28T19:46:38.782Z,73.12
2022-09-28T19:49:12.454Z,73.85
2022-09-28T19:52:01.740Z,73.49
2022-09-28T19:54:13.393Z,73.44
2022-09-28T19:56:42.527Z,73.52
2022-09-28T19:59:11.173Z,73.58
2022-09-28T20:01:39.145Z,73.50
2022-09-28T20:04:06.451Z,73.80
2022-09-28T20:06:36.359Z,73.75
2022-09-28T20:09:04.134Z,73.88
2022-09-28T20:11:31.876Z,73.89
2022-09-28T20:13:59.708Z,73.96
2022-09-28T20:16:29.081Z,74.18
2022-09-28T20:18:59.928Z,74.16
2022-09-28T20:21:27.292Z,74.32
2022-09-28T20:23:55.725Z,74.11
2022-09-28T20:26:24.304Z,74.52
2022-09-28T20:28:53.326Z,74.39
2022-09-28T20:31:23.135Z,74.22
2022-09-28T20:33:51.221Z,74.21
2022-09-28T20:36:21.476Z,74.30
2022-09-28T20:38:50.530Z,74.22
2022-09-28T20:41:19.551Z,74.31
2022-09-28T20:43:46.694Z,74.24
2022-09-28T20:46:14.634Z,74.36
2022-09-28T20:48:41.888Z,74.48
2022-09-28T20:51:15.113Z,74.39
2022-09-28T20:53:45.321Z,74.35
2022-09-28T20:56:15.635Z,74.40
2022-09-28T20:58:43.014Z,74.46
2022-09-28T21:01:16.808Z,74.71
2022-09-28T21:03:50.380Z,74.56
2022-09-28T21:06:21.353Z,74.78
2022-09-28T21:08:49.170Z,74.55
2022-09-28T21:11:18.415Z,74.55
2022-09-28T21:13:45.685Z,74.77
2022-09-28T21:16:15.768Z,74.50
2022-09-28T21:18:43.246Z,74.63
2022-09-28T21:21:15.246Z,74.73
2022-09-28T21:23:44.236Z,74.67
2022-09-28T21:26:15.302Z,74.76
2022-09-28T21:28:44.290Z,74.89
2022-09-28T21:31:12.088Z,74.74
2022-09-28T21:33:39.480Z,74.85
2022-09-28T21:36:10.226Z,75.53
2022-09-28T21:38:37.651Z,75.04
2022-09-28T21:41:05.121Z,75.18
2022-09-28T21:43:34.242Z,75.04
2022-09-28T21:46:01.726Z,75.30
2022-09-28T21:48:29.459Z,75.21
2022-09-28T21:50:58.625Z,75.38
2022-09-28T21:53:28.634Z,75.47
2022-09-28T21:55:58.236Z,75.44
2022-09-28T21:58:28.265Z,75.40
2022-09-28T22:01:14.126Z,75.48
2022-09-28T22:03:43.380Z,75.35
2022-09-28T22:06:11.335Z,75.42
2022-09-28T22:08:38.955Z,75.54
2022-09-28T22:11:11.292Z,75.45
2022-09-28T22:13:43.682Z,75.43
2022-09-28T22:16:12.049Z,75.50
2022-09-28T22:18:41.123Z,75.55
2022-09-28T22:21:20.095Z,75.63
2022-09-28T22:23:48.002Z,75.56
2022-09-28T22:26:24.268Z,75.75
2022-09-28T22:28:54.051Z,75.70
2022-09-28T22:31:28.183Z,75.71
2022-09-28T22:33:56.664Z,75.69
2022-09-28T22:36:25.432Z,75.77
2022-09-28T22:38:54.756Z,75.80
2022-09-28T22:41:22.675Z,75.79
2022-09-28T22:43:51.367Z,75.85
2022-09-28T22:46:24.776Z,75.84
2022-09-28T22:48:54.811Z,75.72
2022-09-28T22:51:23.647Z,75.64
2022-09-28T22:53:51.311Z,75.79
2022-09-28T22:56:19.348Z,75.79
2022-09-28T22:58:47.242Z,75.78
2022-09-28T23:01:17.291Z,75.76
2022-09-28T23:03:45.157Z,75.96
2022-09-28T23:06:15.393Z,75.99
2022-09-28T23:08:43.934Z,76.00
2022-09-28T23:11:11.598Z,76.02
2022-09-28T23:13:39.265Z,76.06
2022-09-28T23:16:10.199Z,76.10
2022-09-28T23:18:40.450Z,76.26
2022-09-28T23:21:14.678Z,76.30
2022-09-28T23:23:44.107Z,76.47
2022-09-28T23:26:14.307Z,76.64
2022-09-28T23:28:42.270Z,76.53
2022-09-28T23:31:15.164Z,76.61
2022-09-28T23:33:42.273Z,76.60
2022-09-28T23:36:09.476Z,76.81
2022-09-28T23:38:36.684Z,76.87
2022-09-28T23:41:04.409Z,76.80
2022-09-28T23:43:31.898Z,76.83
2022-09-28T23:45:59.041Z,76.99
2022-09-28T23:48:26.213Z,77.19
2022-09-28T23:50:53.431Z,77.18
2022-09-28T23:53:20.540Z,77.24
2022-09-28T23:55:47.786Z,77.27
2022-09-28T23:58:14.784Z,77.39
